Time;durP1;ratioP1;P1;durP2;ratioP2;P2;SDS_P1;SDS_P2;PMS_P1;PMS_P2;Temp;Humidity;BMP_temperature;BMP_pressure;BME280_temperature;BME280_humidity;BME280_pressure;Samples;Min_cycle;Max_cycle;Signal;HPM_P1;HPM_P2
2023/06/29 00:00:24;;;;;;;5.40;4.50;;;;;;;;;;109798;275;42059;-38
2023/06/29 00:03:18;;;;;;;5.50;4.50;;;;;;;;;;109758;275;44259;-38
2023/06/29 00:05:55;;;;;;;5.50;4.40;;;;;;;;;;109769;275;40922;-38
2023/06/29 00:08:35;;;;;;;5.60;4.30;;;;;;;;;;109767;275;43061;-38
2023/06/29 00:11:09;;;;;;;5.40;4.40;;;;;;;;;;109762;275;43259;-39
2023/06/29 00:13:44;;;;;;;5.30;4.60;;;;;;;;;;109758;271;45516;-38
2023/06/29 00:16:18;;;;;;;6.50;4.50;;;;;;;;;;109759;275;40794;-38
2023/06/29 00:18:55;;;;;;;5.90;4.70;;;;;;;;;;109795;275;42975;-38
2023/06/29 00:21:29;;;;;;;6.50;4.80;;;;;;;;;;109748;275;43266;-39
2023/06/29 00:24:11;;;;;;;5.60;4.50;;;;;;;;;;109749;275;45148;-38
2023/06/29 00:26:45;;;;;;;6.00;4.50;;;;;;;;;;109795;275;39694;-38
2023/06/29 00:29:19;;;;;;;5.30;4.60;;;;;;;;;;109754;275;42965;-38
2023/06/29 00:31:52;;;;;;;5.40;4.60;;;;;;;;;;109749;275;43163;-38
2023/06/29 00:34:28;;;;;;;5.50;4.60;;;;;;;;;;109767;271;38887;-38
2023/06/29 00:37:02;;;;;;;5.60;4.80;;;;;;;;;;109767;271;39809;-38
2023/06/29 00:39:38;;;;;;;5.40;4.80;;;;;;;;;;109803;275;42797;-41
2023/06/29 00:42:14;;;;;;;5.50;4.40;;;;;;;;;;109768;271;41907;-42
2023/06/29 00:44:49;;;;;;;5.70;4.50;;;;;;;;;;109766;275;38785;-40
2023/06/29 00:47:24;;;;;;;5.00;4.40;;;;;;;;;;109125;271;892603;-43
2023/06/29 00:49:58;;;;;;;5.90;4.50;;;;;;;;;;109789;275;42836;-40
2023/06/29 00:52:33;;;;;;;5.70;5.00;;;;;;;;;;109768;276;43486;-41
2023/06/29 00:55:07;;;;;;;5.20;4.70;;;;;;;;;;109787;275;39051;-40
2023/06/29 00:57:42;;;;;;;6.10;4.90;;;;;;;;;;109766;275;39735;-42
2023/06/29 01:00:20;;;;;;;5.50;4.40;;;;;;;;;;109773;275;42877;-41
2023/06/29 01:02:56;;;;;;;5.80;4.70;;;;;;;;;;109734;277;42109;-41
2023/06/29 01:05:34;;;;;;;5.20;4.50;;;;;;;;;;109788;271;39950;-41
2023/06/29 01:08:32;;;;;;;5.20;4.60;;;;;;;;;;109773;275;39702;-42
2023/06/29 01:11:06;;;;;;;5.60;4.50;;;;;;;;;;109767;268;44062;-41
2023/06/29 01:13:42;;;;;;;5.40;4.70;;;;;;;;;;109782;275;42179;-40
2023/06/29 01:16:19;;;;;;;5.60;4.50;;;;;;;;;;109778;275;38740;-40
2023/06/29 01:18:55;;;;;;;5.50;4.70;;;;;;;;;;109797;275;39620;-41
2023/06/29 01:21:29;;;;;;;5.50;4.50;;;;;;;;;;109776;268;42884;-41
2023/06/29 01:24:06;;;;;;;5.10;4.60;;;;;;;;;;109765;275;42148;-41
2023/06/29 01:26:40;;;;;;;5.20;4.70;;;;;;;;;;109785;275;38803;-41
2023/06/29 01:29:14;;;;;;;4.90;4.10;;;;;;;;;;109780;275;39699;-42
2023/06/29 01:31:48;;;;;;;5.50;4.50;;;;;;;;;;109760;271;42629;-41
2023/06/29 01:34:22;;;;;;;5.50;4.80;;;;;;;;;;109725;268;43262;-41
2023/06/29 01:37:06;;;;;;;5.60;4.50;;;;;;;;;;109776;275;38889;-41
2023/06/29 01:39:45;;;;;;;5.30;4.40;;;;;;;;;;109798;275;40878;-40
2023/06/29 01:42:22;;;;;;;5.70;4.80;;;;;;;;;;109786;276;43903;-41
2023/06/29 01:44:56;;;;;;;5.40;4.50;;;;;;;;;;109748;275;43454;-40
2023/06/29 01:47:35;;;;;;;5.20;4.30;;;;;;;;;;109769;275;38903;-41
2023/06/29 01:50:11;;;;;;;5.60;4.30;;;;;;;;;;109796;275;41906;-40
2023/06/29 01:52:46;;;;;;;5.30;4.30;;;;;;;;;;109797;275;42920;-40
2023/06/29 01:55:22;;;;;;;5.00;4.50;;;;;;;;;;109782;271;42114;-41
2023/06/29 01:57:58;;;;;;;5.80;4.20;;;;;;;;;;109770;275;38759;-40
2023/06/29 02:00:32;;;;;;;5.60;4.50;;;;;;;;;;109794;275;40880;-40
2023/06/29 02:03:11;;;;;;;5.70;4.60;;;;;;;;;;109783;268;42689;-40
2023/06/29 02:05:47;;;;;;;5.50;4.40;;;;;;;;;;109773;275;41867;-40
2023/06/29 02:08:22;;;;;;;5.40;4.30;;;;;;;;;;109760;275;38849;-40
2023/06/29 02:10:58;;;;;;;5.00;4.40;;;;;;;;;;109766;275;40979;-40
2023/06/29 02:13:32;;;;;;;5.40;4.30;;;;;;;;;;109778;275;43217;-41
2023/06/29 02:16:07;;;;;;;5.00;4.30;;;;;;;;;;109754;275;49791;-40
2023/06/29 02:18:40;;;;;;;5.40;4.30;;;;;;;;;;109769;275;41028;-40
2023/06/29 02:21:16;;;;;;;5.30;4.30;;;;;;;;;;109776;268;39670;-41
2023/06/29 02:23:50;;;;;;;5.10;4.50;;;;;;;;;;109802;275;42856;-40
2023/06/29 02:26:26;;;;;;;5.10;4.60;;;;;;;;;;109762;275;47822;-40
2023/06/29 02:29:00;;;;;;;4.90;4.20;;;;;;;;;;109767;275;38531;-40
2023/06/29 02:31:34;;;;;;;4.90;4.40;;;;;;;;;;109801;276;39809;-40
2023/06/29 02:34:10;;;;;;;5.10;4.30;;;;;;;;;;109771;275;42786;-40
2023/06/29 02:36:46;;;;;;;5.10;4.10;;;;;;;;;;109776;275;47861;-40
2023/06/29 02:39:20;;;;;;;5.40;4.70;;;;;;;;;;109799;268;38535;-41
2023/06/29 02:41:54;;;;;;;5.00;4.30;;;;;;;;;;109695;273;39936;-40
2023/06/29 02:44:36;;;;;;;5.60;4.00;;;;;;;;;;109786;275;42896;-41
2023/06/29 02:47:19;;;;;;;5.30;4.60;;;;;;;;;;109759;275;49747;-41
2023/06/29 02:49:56;;;;;;;5.20;4.50;;;;;;;;;;109775;271;38731;-41
2023/06/29 02:52:39;;;;;;;5.50;4.40;;;;;;;;;;109770;275;39703;-42
2023/06/29 02:55:13;;;;;;;5.90;4.50;;;;;;;;;;109739;279;42818;-41
2023/06/29 02:57:48;;;;;;;6.00;4.50;;;;;;;;;;109661;268;174968;-39
2023/06/29 03:00:23;;;;;;;5.40;4.30;;;;;;;;;;109822;268;38710;-40
2023/06/29 03:02:59;;;;;;;5.20;4.20;;;;;;;;;;109752;279;40037;-40
2023/06/29 03:05:33;;;;;;;5.00;3.90;;;;;;;;;;109773;275;42905;-40
2023/06/29 03:08:09;;;;;;;4.70;4.20;;;;;;;;;;109747;275;43659;-40
2023/06/29 03:10:43;;;;;;;5.00;4.20;;;;;;;;;;109780;275;39853;-40
2023/06/29 03:13:19;;;;;;;5.10;4.40;;;;;;;;;;109764;275;39586;-40
2023/06/29 03:15:56;;;;;;;5.40;4.30;;;;;;;;;;109798;275;42848;-40
2023/06/29 03:18:30;;;;;;;5.10;4.30;;;;;;;;;;109733;271;42317;-40
2023/06/29 03:21:09;;;;;;;5.00;4.30;;;;;;;;;;109739;275;39835;-40
2023/06/29 03:23:51;;;;;;;5.30;4.00;;;;;;;;;;109780;275;40740;-40
2023/06/29 03:26:25;;;;;;;5.60;4.20;;;;;;;;;;109756;275;42811;-40
2023/06/29 03:28:59;;;;;;;5.00;4.10;;;;;;;;;;109754;275;42225;-40
2023/06/29 03:31:33;;;;;;;5.60;4.30;;;;;;;;;;109786;271;38800;-39
2023/06/29 03:34:11;;;;;;;4.80;4.10;;;;;;;;;;109726;277;40853;-40
2023/06/29 03:36:47;;;;;;;4.80;4.30;;;;;;;;;;109763;275;42825;-41
2023/06/29 03:39:21;;;;;;;5.40;4.30;;;;;;;;;;109736;275;43390;-41
2023/06/29 03:41:55;;;;;;;5.20;4.40;;;;;;;;;;109738;273;38832;-41
2023/06/29 03:44:29;;;;;;;5.10;4.30;;;;;;;;;;109738;277;41006;-40
2023/06/29 03:47:03;;;;;;;5.00;4.10;;;;;;;;;;109781;271;43118;-41
2023/06/29 03:49:39;;;;;;;5.30;3.90;;;;;;;;;;109763;275;49460;-40
2023/06/29 03:52:13;;;;;;;5.30;4.10;;;;;;;;;;109765;268;38781;-42
2023/06/29 03:54:48;;;;;;;5.90;4.20;;;;;;;;;;109760;268;40181;-40
2023/06/29 03:57:22;;;;;;;5.30;4.20;;;;;;;;;;109744;275;43105;-40
2023/06/29 03:59:59;;;;;;;5.60;4.10;;;;;;;;;;109774;279;47483;-40
2023/06/29 04:02:32;;;;;;;5.80;3.90;;;;;;;;;;109787;275;38763;-41
2023/06/29 04:05:11;;;;;;;4.80;3.70;;;;;;;;;;109806;275;39756;-41
2023/06/29 04:07:46;;;;;;;4.80;4.20;;;;;;;;;;109784;275;43033;-40
2023/06/29 04:10:19;;;;;;;5.30;4.50;;;;;;;;;;109761;275;48926;-40
2023/06/29 04:12:53;;;;;;;5.50;4.20;;;;;;;;;;109665;271;174969;-41
2023/06/29 04:15:50;;;;;;;5.70;4.00;;;;;;;;;;109756;279;39672;-41
2023/06/29 04:18:24;;;;;;;5.20;4.10;;;;;;;;;;109742;276;43970;-41
2023/06/29 04:21:00;;;;;;;4.90;4.00;;;;;;;;;;109761;275;41893;-40
2023/06/29 04:23:35;;;;;;;5.00;4.10;;;;;;;;;;109650;271;174929;-41
2023/06/29 04:26:10;;;;;;;5.10;4.00;;;;;;;;;;109761;275;39606;-41
2023/06/29 04:28:45;;;;;;;6.00;4.20;;;;;;;;;;109776;275;42983;-40
2023/06/29 04:31:19;;;;;;;5.00;3.90;;;;;;;;;;109723;280;42632;-40
2023/06/29 04:33:53;;;;;;;5.10;4.20;;;;;;;;;;109761;275;38784;-41
2023/06/29 04:36:27;;;;;;;4.70;3.90;;;;;;;;;;109789;275;39638;-41
2023/06/29 04:39:01;;;;;;;5.10;4.10;;;;;;;;;;109728;277;42866;-39
2023/06/29 04:41:36;;;;;;;4.70;3.80;;;;;;;;;;109781;275;42073;-40
2023/06/29 04:44:11;;;;;;;4.70;3.80;;;;;;;;;;109773;275;38754;-40
2023/06/29 04:46:48;;;;;;;5.10;4.00;;;;;;;;;;109687;268;174949;-40
2023/06/29 04:49:24;;;;;;;5.20;3.90;;;;;;;;;;109391;275;488527;-40
2023/06/29 04:51:59;;;;;;;5.50;3.80;;;;;;;;;;109775;277;42124;-40
2023/06/29 04:54:34;;;;;;;4.80;3.80;;;;;;;;;;109788;268;40003;-40
2023/06/29 04:57:08;;;;;;;4.90;4.20;;;;;;;;;;109803;275;39701;-40
2023/06/29 04:59:42;;;;;;;5.30;4.20;;;;;;;;;;109748;280;42868;-41
2023/06/29 05:02:15;;;;;;;4.80;3.90;;;;;;;;;;109769;275;41987;-40
2023/06/29 05:04:50;;;;;;;5.40;3.90;;;;;;;;;;109778;268;38982;-40
2023/06/29 05:07:23;;;;;;;5.70;4.00;;;;;;;;;;109768;275;39453;-40
2023/06/29 05:09:58;;;;;;;5.10;4.10;;;;;;;;;;109732;275;42854;-39
2023/06/29 05:12:31;;;;;;;5.00;3.60;;;;;;;;;;109792;268;42115;-40
2023/06/29 05:15:06;;;;;;;5.40;4.30;;;;;;;;;;109769;268;38869;-40
2023/06/29 05:17:40;;;;;;;5.40;3.80;;;;;;;;;;109768;275;40870;-41
2023/06/29 05:20:17;;;;;;;5.50;3.90;;;;;;;;;;109756;271;43950;-40
2023/06/29 05:22:50;;;;;;;5.60;4.10;;;;;;;;;;109795;275;42134;-40
2023/06/29 05:25:25;;;;;;;5.50;4.10;;;;;;;;;;109773;275;38786;-40
2023/06/29 05:27:58;;;;;;;5.80;3.90;;;;;;;;;;109775;275;40052;-39
2023/06/29 05:30:34;;;;;;;5.80;4.00;;;;;;;;;;109737;275;42963;-40
2023/06/29 05:33:08;;;;;;;5.50;4.10;;;;;;;;;;109786;271;43125;-40
2023/06/29 05:35:41;;;;;;;5.50;3.80;;;;;;;;;;109818;275;38617;-41
2023/06/29 05:38:15;;;;;;;6.10;4.00;;;;;;;;;;109768;275;39645;-40
2023/06/29 05:40:48;;;;;;;5.70;4.30;;;;;;;;;;109768;275;42927;-41
2023/06/29 05:43:23;;;;;;;5.50;4.10;;;;;;;;;;109772;275;42157;-41
2023/06/29 05:45:57;;;;;;;6.30;4.10;;;;;;;;;;109786;275;38858;-40
2023/06/29 05:48:31;;;;;;;6.90;4.30;;;;;;;;;;109780;275;39748;-40
2023/06/29 05:51:05;;;;;;;6.80;4.30;;;;;;;;;;109762;275;42694;-40
2023/06/29 05:53:39;;;;;;;6.10;4.20;;;;;;;;;;109798;268;42298;-41
2023/06/29 05:56:13;;;;;;;5.70;4.50;;;;;;;;;;109751;276;38901;-41
2023/06/29 05:58:48;;;;;;;6.10;4.30;;;;;;;;;;109674;271;175051;-42
2023/06/29 06:01:21;;;;;;;7.20;4.50;;;;;;;;;;109756;275;42822;-40
2023/06/29 06:03:55;;;;;;;5.80;4.30;;;;;;;;;;109767;275;42142;-40
2023/06/29 06:06:30;;;;;;;5.60;4.20;;;;;;;;;;109776;275;38787;-40
2023/06/29 06:09:03;;;;;;;6.00;4.40;;;;;;;;;;109788;275;39758;-41
2023/06/29 06:11:37;;;;;;;5.60;4.40;;;;;;;;;;109760;272;42875;-40
2023/06/29 06:14:11;;;;;;;5.20;4.30;;;;;;;;;;109785;268;43278;-40
2023/06/29 06:16:45;;;;;;;5.80;4.30;;;;;;;;;;109779;275;38803;-42
2023/06/29 06:19:29;;;;;;;5.60;4.20;;;;;;;;;;109776;275;39680;-40
2023/06/29 06:22:03;;;;;;;6.00;4.60;;;;;;;;;;109790;275;42875;-41
2023/06/29 06:24:36;;;;;;;6.10;4.70;;;;;;;;;;109752;275;42141;-40
2023/06/29 06:27:11;;;;;;;6.40;4.50;;;;;;;;;;109762;271;38903;-41
2023/06/29 06:29:44;;;;;;;6.00;4.40;;;;;;;;;;109762;275;39608;-41
2023/06/29 06:32:21;;;;;;;7.20;5.10;;;;;;;;;;109788;275;43180;-41
2023/06/29 06:34:54;;;;;;;9.70;5.70;;;;;;;;;;109759;275;42148;-41
2023/06/29 06:37:28;;;;;;;10.30;6.00;;;;;;;;;;109773;280;41273;-41
2023/06/29 06:40:07;;;;;;;11.20;6.70;;;;;;;;;;109764;279;39839;-41
2023/06/29 06:42:42;;;;;;;10.40;6.50;;;;;;;;;;109750;275;44150;-40
2023/06/29 06:45:16;;;;;;;9.80;6.10;;;;;;;;;;109768;275;41888;-40
2023/06/29 06:47:49;;;;;;;10.30;6.30;;;;;;;;;;109795;275;39916;-40
2023/06/29 06:50:23;;;;;;;11.10;5.90;;;;;;;;;;109763;275;40898;-41
2023/06/29 06:52:58;;;;;;;9.50;6.10;;;;;;;;;;109643;275;174999;-41
2023/06/29 06:55:31;;;;;;;10.10;6.00;;;;;;;;;;109803;268;42367;-40
2023/06/29 06:58:05;;;;;;;9.20;6.00;;;;;;;;;;109777;275;38531;-41
2023/06/29 07:00:40;;;;;;;8.80;5.80;;;;;;;;;;109659;275;174958;-41
2023/06/29 07:03:13;;;;;;;9.00;5.70;;;;;;;;;;109102;275;913529;-41
2023/06/29 07:05:48;;;;;;;8.90;5.90;;;;;;;;;;109781;275;43462;-41
2023/06/29 07:08:22;;;;;;;7.50;5.20;;;;;;;;;;109803;275;39044;-41
2023/06/29 07:10:55;;;;;;;8.00;5.60;;;;;;;;;;109783;271;39688;-41
2023/06/29 07:13:32;;;;;;;9.00;5.40;;;;;;;;;;109758;275;43032;-41
2023/06/29 07:16:06;;;;;;;7.80;5.60;;;;;;;;;;109795;275;42318;-40
2023/06/29 07:18:40;;;;;;;8.00;5.40;;;;;;;;;;109784;275;38996;-41
2023/06/29 07:21:14;;;;;;;7.20;5.20;;;;;;;;;;109800;273;39770;-41
2023/06/29 07:23:54;;;;;;;7.40;5.20;;;;;;;;;;109771;275;43123;-43
2023/06/29 07:26:49;;;;;;;7.00;5.10;;;;;;;;;;109680;279;42157;-41
2023/06/29 07:29:23;;;;;;;8.50;5.20;;;;;;;;;;109699;284;38767;-41
2023/06/29 07:31:58;;;;;;;6.50;5.10;;;;;;;;;;109708;279;40060;-41
2023/06/29 07:34:33;;;;;;;7.40;5.20;;;;;;;;;;109680;279;48975;-41
2023/06/29 07:37:08;;;;;;;7.80;5.10;;;;;;;;;;109683;279;41878;-41
2023/06/29 07:39:42;;;;;;;6.50;4.70;;;;;;;;;;109677;279;38526;-41
2023/06/29 07:42:15;;;;;;;7.40;5.00;;;;;;;;;;109707;279;39681;-41
2023/06/29 07:45:12;;;;;;;6.40;5.00;;;;;;;;;;109711;280;49018;-41
2023/06/29 07:47:45;;;;;;;6.20;4.60;;;;;;;;;;109756;275;43197;-41
2023/06/29 07:50:22;;;;;;;6.10;4.50;;;;;;;;;;109780;275;38859;-41
2023/06/29 07:52:55;;;;;;;6.30;4.50;;;;;;;;;;109767;275;39813;-41
2023/06/29 07:55:31;;;;;;;6.10;4.40;;;;;;;;;;109769;275;42848;-41
2023/06/29 07:58:05;;;;;;;6.20;4.90;;;;;;;;;;109776;272;43227;-41
2023/06/29 08:00:42;;;;;;;6.40;4.70;;;;;;;;;;109781;275;38880;-41
2023/06/29 08:03:16;;;;;;;6.20;4.40;;;;;;;;;;109785;271;39432;-41
2023/06/29 08:05:50;;;;;;;6.10;4.50;;;;;;;;;;109796;275;42871;-41
2023/06/29 08:08:50;;;;;;;6.20;4.40;;;;;;;;;;109689;279;42100;-41
2023/06/29 08:11:24;;;;;;;6.20;4.40;;;;;;;;;;109680;279;40026;-42
2023/06/29 08:14:01;;;;;;;6.20;4.20;;;;;;;;;;109652;278;40975;-41
2023/06/29 08:16:35;;;;;;;6.50;4.50;;;;;;;;;;109730;279;42869;-41
2023/06/29 08:19:11;;;;;;;6.00;4.30;;;;;;;;;;109679;279;41852;-42
2023/06/29 08:21:47;;;;;;;6.00;4.40;;;;;;;;;;109683;278;38646;-41
2023/06/29 08:24:21;;;;;;;5.70;4.20;;;;;;;;;;109653;278;39848;-41
2023/06/29 08:26:55;;;;;;;6.10;4.70;;;;;;;;;;109725;271;42825;-43
2023/06/29 08:29:29;;;;;;;5.50;4.00;;;;;;;;;;109753;271;41849;-41
2023/06/29 08:32:03;;;;;;;5.80;4.60;;;;;;;;;;109767;275;39910;-41
2023/06/29 08:34:39;;;;;;;6.00;4.20;;;;;;;;;;109772;275;39749;-41
2023/06/29 08:37:12;;;;;;;5.70;4.30;;;;;;;;;;109767;275;42853;-42
2023/06/29 08:39:47;;;;;;;6.20;4.00;;;;;;;;;;109725;275;43196;-40
2023/06/29 08:42:24;;;;;;;6.10;4.30;;;;;;;;;;109778;271;38764;-41
2023/06/29 08:45:01;;;;;;;5.60;4.10;;;;;;;;;;109764;275;39714;-40
2023/06/29 08:47:38;;;;;;;5.40;3.90;;;;;;;;;;109763;268;42830;-39
2023/06/29 08:50:31;;;;;;;6.20;4.50;;;;;;;;;;109767;275;42125;-43
2023/06/29 08:53:03;;;;;;;;;;;;;;;;;;109771;275;38797;-41
2023/06/29 08:55:39;;;;;;;5.90;4.30;;;;;;;;;;109784;275;39715;-44
2023/06/29 08:58:13;;;;;;;6.80;5.00;;;;;;;;;;109783;275;42613;-41
2023/06/29 09:00:47;;;;;;;6.10;4.70;;;;;;;;;;109777;275;41865;-44
2023/06/29 09:03:22;;;;;;;6.50;5.00;;;;;;;;;;109781;271;38802;-40
2023/06/29 09:05:57;;;;;;;6.70;5.50;;;;;;;;;;109740;275;39731;-41
2023/06/29 09:08:34;;;;;;;6.00;4.70;;;;;;;;;;109758;275;43070;-42
2023/06/29 09:11:08;;;;;;;5.80;4.50;;;;;;;;;;109784;275;42221;-42
2023/06/29 09:13:42;;;;;;;5.90;5.00;;;;;;;;;;109785;275;39825;-40
2023/06/29 09:16:17;;;;;;;5.50;4.40;;;;;;;;;;109728;271;39740;-40
2023/06/29 09:18:56;;;;;;;7.50;5.10;;;;;;;;;;109769;275;42642;-40
2023/06/29 09:21:33;;;;;;;;;;;;;;;;;;109772;275;44237;-40
2023/06/29 09:24:14;;;;;;;6.60;4.50;;;;;;;;;;109769;275;38555;-39
2023/06/29 09:26:56;;;;;;;6.20;4.90;;;;;;;;;;109739;275;40844;-39
2023/06/29 09:29:30;;;;;;;5.80;4.70;;;;;;;;;;109744;275;42964;-41
2023/06/29 09:32:17;;;;;;;5.60;4.50;;;;;;;;;;109715;275;43012;-41
2023/06/29 09:34:57;;;;;;;6.40;4.40;;;;;;;;;;109865;276;38789;-42
2023/06/29 09:37:31;;;;;;;6.60;4.60;;;;;;;;;;109775;275;39857;-41
2023/06/29 09:40:09;;;;;;;5.20;4.30;;;;;;;;;;109737;275;43387;-42
2023/06/29 09:42:44;;;;;;;6.60;4.60;;;;;;;;;;109779;275;42121;-43
2023/06/29 09:45:18;;;;;;;5.50;4.20;;;;;;;;;;109662;273;174930;-41
2023/06/29 09:47:57;;;;;;;5.40;4.10;;;;;;;;;;109745;280;39832;-41
2023/06/29 09:50:36;;;;;;;5.80;4.20;;;;;;;;;;109745;271;42909;-41
2023/06/29 09:53:13;;;;;;;6.30;4.50;;;;;;;;;;109783;271;42585;-43
2023/06/29 09:55:48;;;;;;;5.70;4.30;;;;;;;;;;109798;275;38512;-43
2023/06/29 09:58:26;;;;;;;6.00;4.50;;;;;;;;;;109770;271;39457;-41
2023/06/29 10:01:03;;;;;;;5.80;4.30;;;;;;;;;;109789;275;42795;-41
2023/06/29 10:03:37;;;;;;;5.70;4.30;;;;;;;;;;109798;271;42104;-40
2023/06/29 10:06:16;;;;;;;5.20;4.10;;;;;;;;;;109782;267;38932;-39
2023/06/29 10:08:58;;;;;;;5.50;4.10;;;;;;;;;;109756;276;39664;-39
2023/06/29 10:11:36;;;;;;;;;;;;;;;;;;109776;275;44316;-38
2023/06/29 10:14:13;;;;;;;6.40;4.10;;;;;;;;;;109780;267;42186;-37
2023/06/29 10:16:54;;;;;;;6.60;4.20;;;;;;;;;;109788;275;39941;-36
2023/06/29 10:19:31;;;;;;;5.60;4.00;;;;;;;;;;109774;275;45836;-38
2023/06/29 10:22:14;;;;;;;5.40;4.10;;;;;;;;;;109802;271;43988;-38
2023/06/29 10:25:01;;;;;;;6.40;4.30;;;;;;;;;;109748;275;42213;-37
2023/06/29 10:27:40;;;;;;;6.00;4.20;;;;;;;;;;109761;275;39894;-38
2023/06/29 10:30:21;;;;;;;6.70;4.40;;;;;;;;;;109761;271;39833;-38
2023/06/29 10:32:55;;;;;;;6.20;4.30;;;;;;;;;;109805;276;42840;-39
2023/06/29 10:35:36;;;;;;;6.10;4.50;;;;;;;;;;109753;267;41853;-38
2023/06/29 10:38:15;;;;;;;6.50;4.70;;;;;;;;;;109824;275;38872;-37
2023/06/29 10:40:53;;;;;;;6.70;4.60;;;;;;;;;;109798;268;39487;-39
2023/06/29 10:43:32;;;;;;;5.80;4.10;;;;;;;;;;109774;275;42903;-38
2023/06/29 10:46:05;;;;;;;6.10;4.60;;;;;;;;;;109783;275;44082;-37
2023/06/29 10:49:10;;;;;;;6.00;4.70;;;;;;;;;;109750;275;38822;-39
2023/06/29 10:52:02;;;;;;;7.20;4.60;;;;;;;;;;109671;271;174958;-38
2023/06/29 10:54:36;;;;;;;6.20;4.50;;;;;;;;;;109764;275;43357;-38
2023/06/29 10:57:11;;;;;;;5.80;4.30;;;;;;;;;;109772;275;42200;-39
2023/06/29 10:59:46;;;;;;;6.30;4.90;;;;;;;;;;109757;275;38766;-38
2023/06/29 11:02:26;;;;;;;5.70;4.30;;;;;;;;;;109785;275;39703;-38
2023/06/29 11:05:03;;;;;;;6.70;4.50;;;;;;;;;;109763;275;42864;-36
2023/06/29 11:07:39;;;;;;;5.70;4.50;;;;;;;;;;109769;275;42108;-36
2023/06/29 11:10:16;;;;;;;5.70;4.10;;;;;;;;;;109771;275;38612;-36
2023/06/29 11:12:55;;;;;;;5.60;4.10;;;;;;;;;;109777;268;39652;-39
2023/06/29 11:15:32;;;;;;;6.00;4.40;;;;;;;;;;109750;272;42865;-36
2023/06/29 11:18:08;;;;;;;6.40;4.40;;;;;;;;;;109783;275;42163;-35
2023/06/29 11:20:42;;;;;;;5.10;4.10;;;;;;;;;;109748;275;38783;-36
2023/06/29 11:23:24;;;;;;;5.50;4.20;;;;;;;;;;109774;271;39818;-37
2023/06/29 11:26:04;;;;;;;5.80;4.10;;;;;;;;;;109767;273;42886;-38
2023/06/29 11:28:39;;;;;;;5.30;4.10;;;;;;;;;;109760;275;42023;-39
2023/06/29 11:31:14;;;;;;;6.20;4.70;;;;;;;;;;109750;275;39690;-38
2023/06/29 11:33:53;;;;;;;5.50;4.00;;;;;;;;;;109753;275;40794;-38
2023/06/29 11:36:36;;;;;;;6.00;4.20;;;;;;;;;;109760;275;42844;-37
2023/06/29 11:39:12;;;;;;;5.90;3.90;;;;;;;;;;109762;275;42247;-38
2023/06/29 11:41:49;;;;;;;5.00;3.70;;;;;;;;;;109751;275;38585;-38
2023/06/29 11:44:26;;;;;;;6.30;4.00;;;;;;;;;;109804;275;40785;-38
2023/06/29 11:47:03;;;;;;;6.00;3.80;;;;;;;;;;109760;273;43069;-39
2023/06/29 11:49:55;;;;;;;5.20;3.80;;;;;;;;;;109737;275;42151;-39
2023/06/29 11:52:31;;;;;;;4.90;3.60;;;;;;;;;;109788;275;45900;-38
2023/06/29 11:55:07;;;;;;;4.60;3.40;;;;;;;;;;109778;275;39419;-39
2023/06/29 11:57:41;;;;;;;5.60;3.80;;;;;;;;;;109769;271;43137;-39
2023/06/29 12:00:37;;;;;;;5.80;3.60;;;;;;;;;;109741;268;41901;-37
2023/06/29 12:03:12;;;;;;;5.90;3.40;;;;;;;;;;109818;273;44121;-38
2023/06/29 12:05:47;;;;;;;5.30;3.50;;;;;;;;;;109772;271;39432;-38
2023/06/29 12:08:23;;;;;;;4.50;3.30;;;;;;;;;;109763;275;44163;-38
2023/06/29 12:10:57;;;;;;;5.50;3.70;;;;;;;;;;109746;275;43406;-38
2023/06/29 12:13:33;;;;;;;4.90;3.50;;;;;;;;;;109113;275;889980;-38
2023/06/29 12:16:10;;;;;;;5.20;3.40;;;;;;;;;;109783;271;40125;-38
2023/06/29 12:18:50;;;;;;;4.90;3.70;;;;;;;;;;109783;271;42940;-38
2023/06/29 12:21:25;;;;;;;5.90;3.90;;;;;;;;;;109754;268;43349;-39
2023/06/29 12:24:07;;;;;;;4.90;3.50;;;;;;;;;;109774;275;38742;-37
2023/06/29 12:26:43;;;;;;;5.10;3.70;;;;;;;;;;109762;275;42106;-38
2023/06/29 12:29:17;;;;;;;4.90;3.60;;;;;;;;;;109770;271;42959;-38
2023/06/29 12:31:51;;;;;;;5.40;3.50;;;;;;;;;;109786;268;42189;-38
2023/06/29 12:34:25;;;;;;;5.30;3.60;;;;;;;;;;109749;275;37698;-39
2023/06/29 12:37:00;;;;;;;5.70;3.90;;;;;;;;;;109804;279;39785;-36
2023/06/29 12:39:34;;;;;;;5.70;3.90;;;;;;;;;;109780;271;42848;-36
2023/06/29 12:42:09;;;;;;;6.30;3.70;;;;;;;;;;109750;275;41891;-36
2023/06/29 12:44:44;;;;;;;5.90;3.70;;;;;;;;;;109770;275;38998;-36
2023/06/29 12:47:24;;;;;;;6.20;4.10;;;;;;;;;;109705;269;39719;-37
2023/06/29 12:49:58;;;;;;;5.80;3.80;;;;;;;;;;109345;273;535409;-37
2023/06/29 12:52:32;;;;;;;6.60;4.00;;;;;;;;;;109764;275;41848;-37
2023/06/29 12:55:09;;;;;;;5.30;3.90;;;;;;;;;;109772;275;38796;-38
2023/06/29 12:57:44;;;;;;;5.30;3.70;;;;;;;;;;109767;271;39705;-38
2023/06/29 13:00:21;;;;;;;5.40;3.60;;;;;;;;;;109776;275;43975;-39
2023/06/29 13:02:58;;;;;;;5.50;3.70;;;;;;;;;;109681;275;42108;-40
2023/06/29 13:05:35;;;;;;;5.30;3.90;;;;;;;;;;109751;275;38728;-39
2023/06/29 13:08:09;;;;;;;5.60;4.00;;;;;;;;;;109796;275;39482;-38
2023/06/29 13:10:43;;;;;;;5.40;3.60;;;;;;;;;;109748;268;42896;-41
2023/06/29 13:13:17;;;;;;;5.50;4.00;;;;;;;;;;109705;275;43552;-41
2023/06/29 13:15:54;;;;;;;5.20;3.80;;;;;;;;;;109781;271;38847;-39
2023/06/29 13:18:27;;;;;;;5.50;3.80;;;;;;;;;;109744;278;40980;-37
2023/06/29 13:21:03;;;;;;;6.70;4.20;;;;;;;;;;109772;275;42677;-40
2023/06/29 13:23:46;;;;;;;6.00;4.10;;;;;;;;;;109749;275;41859;-41
2023/06/29 13:26:19;;;;;;;6.70;4.10;;;;;;;;;;109773;275;39033;-40
2023/06/29 13:28:53;;;;;;;6.30;4.20;;;;;;;;;;109696;268;192626;-41
2023/06/29 13:31:32;;;;;;;6.00;4.20;;;;;;;;;;109794;275;42620;-41
2023/06/29 13:34:07;;;;;;;5.90;4.00;;;;;;;;;;109738;275;43319;-42
2023/06/29 13:36:44;;;;;;;6.10;4.20;;;;;;;;;;109740;277;38777;-42
2023/06/29 13:39:18;;;;;;;5.70;3.90;;;;;;;;;;109778;271;40673;-43
2023/06/29 13:41:53;;;;;;;5.10;3.80;;;;;;;;;;109788;268;42596;-39
2023/06/29 13:44:27;;;;;;;5.30;3.60;;;;;;;;;;109754;275;42144;-39
2023/06/29 13:47:01;;;;;;;5.00;3.70;;;;;;;;;;109779;275;38763;-39
2023/06/29 13:49:36;;;;;;;5.40;3.70;;;;;;;;;;109785;275;39441;-40
2023/06/29 13:52:09;;;;;;;5.30;3.30;;;;;;;;;;109785;275;42876;-39
2023/06/29 13:54:43;;;;;;;5.10;3.60;;;;;;;;;;109757;275;43271;-39
2023/06/29 13:57:17;;;;;;;5.40;3.60;;;;;;;;;;109794;280;38875;-39
2023/06/29 13:59:53;;;;;;;4.70;3.70;;;;;;;;;;109756;275;40695;-39
2023/06/29 14:02:27;;;;;;;6.20;3.80;;;;;;;;;;109753;275;42880;-39
2023/06/29 14:05:01;;;;;;;5.10;3.40;;;;;;;;;;109746;275;42057;-39
2023/06/29 14:07:35;;;;;;;5.30;3.60;;;;;;;;;;109781;275;39182;-39
2023/06/29 14:10:11;;;;;;;5.10;3.30;;;;;;;;;;109784;275;40741;-39
2023/06/29 14:12:44;;;;;;;5.40;3.60;;;;;;;;;;109647;275;174933;-39
2023/06/29 14:15:18;;;;;;;6.00;3.30;;;;;;;;;;109743;271;42139;-39
2023/06/29 14:17:53;;;;;;;4.40;3.10;;;;;;;;;;109773;271;38778;-39
2023/06/29 14:20:27;;;;;;;5.20;3.30;;;;;;;;;;109746;271;39693;-39
2023/06/29 14:23:04;;;;;;;5.40;3.40;;;;;;;;;;109643;275;174900;-39
2023/06/29 14:25:37;;;;;;;5.00;3.30;;;;;;;;;;109773;271;42145;-39
2023/06/29 14:28:11;;;;;;;5.20;3.40;;;;;;;;;;109778;272;38801;-39
2023/06/29 14:30:47;;;;;;;4.90;3.00;;;;;;;;;;109737;269;39937;-39
2023/06/29 14:33:22;;;;;;;4.90;3.70;;;;;;;;;;109764;275;42608;-40
2023/06/29 14:36:02;;;;;;;4.80;3.40;;;;;;;;;;109779;275;42209;-40
2023/06/29 14:38:37;;;;;;;5.20;3.40;;;;;;;;;;109785;271;38752;-40
2023/06/29 14:41:10;;;;;;;5.00;3.50;;;;;;;;;;109762;275;40848;-40
2023/06/29 14:43:53;;;;;;;4.90;3.50;;;;;;;;;;109737;275;42836;-39
2023/06/29 14:46:27;;;;;;;4.80;3.60;;;;;;;;;;109777;275;47735;-39
2023/06/29 14:49:01;;;;;;;5.00;3.30;;;;;;;;;;109784;275;38735;-39
2023/06/29 14:51:35;;;;;;;5.20;3.60;;;;;;;;;;109709;269;40876;-39
2023/06/29 14:54:09;;;;;;;5.60;3.30;;;;;;;;;;109783;275;42976;-38
2023/06/29 14:56:43;;;;;;;5.20;3.10;;;;;;;;;;109766;275;50225;-39
2023/06/29 14:59:17;;;;;;;5.00;3.40;;;;;;;;;;109721;276;39938;-39
2023/06/29 15:01:51;;;;;;;5.90;3.50;;;;;;;;;;109748;275;39686;-39
2023/06/29 15:04:25;;;;;;;5.40;3.60;;;;;;;;;;109767;275;42892;-39
2023/06/29 15:06:59;;;;;;;5.00;3.40;;;;;;;;;;109763;275;48758;-39
2023/06/29 15:09:33;;;;;;;5.70;3.60;;;;;;;;;;109729;269;39200;-39
2023/06/29 15:12:09;;;;;;;5.10;3.40;;;;;;;;;;109800;275;39678;-38
2023/06/29 15:14:43;;;;;;;5.00;3.30;;;;;;;;;;109780;275;42945;-38
2023/06/29 15:17:17;;;;;;;5.40;3.30;;;;;;;;;;109767;268;50129;-39
2023/06/29 15:19:54;;;;;;;5.20;3.20;;;;;;;;;;109782;275;38768;-39
2023/06/29 15:22:27;;;;;;;4.50;3.30;;;;;;;;;;109794;275;39454;-39
2023/06/29 15:25:01;;;;;;;5.10;3.70;;;;;;;;;;109780;275;42879;-39
2023/06/29 15:27:36;;;;;;;5.50;3.40;;;;;;;;;;109763;275;47767;-39
2023/06/29 15:30:16;;;;;;;5.10;3.40;;;;;;;;;;109764;275;38798;-38
2023/06/29 15:32:50;;;;;;;5.00;3.70;;;;;;;;;;109812;271;40835;-39
2023/06/29 15:35:24;;;;;;;4.90;3.70;;;;;;;;;;109749;275;42891;-39